Weather & Traffic



KLGB 070053Z 30010KT 10SM CLR 27/M03 A2997 RMK AO2 SLP147 T02671033


TAF KLGB 061722Z 0618/0718 04007KT P6SM SKC FM062300 29008KT P6SM SKC FM070500 VRB03KT P6SM SKC